sensor_id;sensor_type;location;lat;lon;timestamp;pressure;altitude;pressure_sealevel;temperature;humidity
64230;BME280;50547;49.498;0.092;2023-06-14T00:01:21;1009.51;;;22.30;58.18
64230;BME280;50547;49.498;0.092;2023-06-14T00:03:50;1009.47;;;22.46;57.43
64230;BME280;50547;49.498;0.092;2023-06-14T00:06:19;1009.47;;;22.45;57.78
64230;BME280;50547;49.498;0.092;2023-06-14T00:08:48;1009.47;;;22.43;58.07
64230;BME280;50547;49.498;0.092;2023-06-14T00:11:17;1009.46;;;22.44;58.13
64230;BME280;50547;49.498;0.092;2023-06-14T00:13:46;1009.46;;;22.28;59.01
64230;BME280;50547;49.498;0.092;2023-06-14T00:16:15;1009.44;;;22.15;59.56
64230;BME280;50547;49.498;0.092;2023-06-14T00:18:44;1009.49;;;21.95;60.21
64230;BME280;50547;49.498;0.092;2023-06-14T00:21:13;1009.47;;;21.75;61.04
64230;BME280;50547;49.498;0.092;2023-06-14T00:23:42;1009.44;;;21.45;62.20
64230;BME280;50547;49.498;0.092;2023-06-14T00:26:11;1009.46;;;21.40;62.18
64230;BME280;50547;49.498;0.092;2023-06-14T00:28:40;1009.47;;;21.42;61.84
64230;BME280;50547;49.498;0.092;2023-06-14T00:31:09;1009.46;;;21.35;61.92
64230;BME280;50547;49.498;0.092;2023-06-14T00:33:38;1009.44;;;21.35;61.77
64230;BME280;50547;49.498;0.092;2023-06-14T00:36:07;1009.44;;;21.11;63.07
64230;BME280;50547;49.498;0.092;2023-06-14T00:38:36;1009.42;;;21.19;62.58
64230;BME280;50547;49.498;0.092;2023-06-14T00:41:05;1009.42;;;21.27;61.98
64230;BME280;50547;49.498;0.092;2023-06-14T00:43:34;1009.47;;;21.38;61.61
64230;BME280;50547;49.498;0.092;2023-06-14T00:46:03;1009.51;;;21.39;61.70
64230;BME280;50547;49.498;0.092;2023-06-14T00:48:33;1009.49;;;21.34;61.89
64230;BME280;50547;49.498;0.092;2023-06-14T00:51:02;1009.49;;;21.20;62.63
64230;BME280;50547;49.498;0.092;2023-06-14T00:53:31;1009.53;;;21.19;62.59
64230;BME280;50547;49.498;0.092;2023-06-14T00:56:01;1009.47;;;21.27;62.21
64230;BME280;50547;49.498;0.092;2023-06-14T00:58:30;1009.49;;;21.41;61.68
64230;BME280;50547;49.498;0.092;2023-06-14T01:00:59;1009.51;;;21.41;61.54
64230;BME280;50547;49.498;0.092;2023-06-14T01:03:28;1009.49;;;21.40;62.00
64230;BME280;50547;49.498;0.092;2023-06-14T01:06:05;1009.49;;;21.56;61.59
64230;BME280;50547;49.498;0.092;2023-06-14T01:08:43;1009.46;;;21.65;61.25
64230;BME280;50547;49.498;0.092;2023-06-14T01:11:22;1009.49;;;21.52;61.96
64230;BME280;50547;49.498;0.092;2023-06-14T01:13:53;1009.42;;;21.15;63.68
64230;BME280;50547;49.498;0.092;2023-06-14T01:16:23;1009.40;;;20.90;64.55
64230;BME280;50547;49.498;0.092;2023-06-14T01:18:53;1009.42;;;20.42;66.54
64230;BME280;50547;49.498;0.092;2023-06-14T01:21:23;1009.42;;;20.39;66.12
64230;BME280;50547;49.498;0.092;2023-06-14T01:23:52;1009.47;;;20.60;64.64
64230;BME280;50547;49.498;0.092;2023-06-14T01:26:19;1009.42;;;20.69;63.99
64230;BME280;50547;49.498;0.092;2023-06-14T01:28:49;1009.46;;;20.57;64.83
64230;BME280;50547;49.498;0.092;2023-06-14T01:31:20;1009.49;;;20.52;65.16
64230;BME280;50547;49.498;0.092;2023-06-14T01:33:47;1009.51;;;20.56;65.05
64230;BME280;50547;49.498;0.092;2023-06-14T01:36:14;1009.53;;;20.78;64.15
64230;BME280;50547;49.498;0.092;2023-06-14T01:38:45;1009.57;;;20.94;63.34
64230;BME280;50547;49.498;0.092;2023-06-14T01:41:15;1009.57;;;20.91;63.40
64230;BME280;50547;49.498;0.092;2023-06-14T01:43:45;1009.49;;;20.84;63.95
64230;BME280;50547;49.498;0.092;2023-06-14T01:46:15;1009.47;;;20.57;65.47
64230;BME280;50547;49.498;0.092;2023-06-14T01:48:45;1009.47;;;20.61;65.33
64230;BME280;50547;49.498;0.092;2023-06-14T01:51:14;1009.46;;;20.73;64.71
64230;BME280;50547;49.498;0.092;2023-06-14T01:53:43;1009.49;;;20.80;64.49
64230;BME280;50547;49.498;0.092;2023-06-14T01:56:12;1009.47;;;20.84;64.43
64230;BME280;50547;49.498;0.092;2023-06-14T01:58:38;1009.51;;;20.81;64.68
64230;BME280;50547;49.498;0.092;2023-06-14T02:01:07;1009.49;;;20.71;65.12
64230;BME280;50547;49.498;0.092;2023-06-14T02:03:36;1009.51;;;20.60;65.68
64230;BME280;50547;49.498;0.092;2023-06-14T02:06:02;1009.49;;;20.59;65.63
64230;BME280;50547;49.498;0.092;2023-06-14T02:08:31;1009.49;;;20.65;65.42
64230;BME280;50547;49.498;0.092;2023-06-14T02:11:00;1009.46;;;20.52;66.02
64230;BME280;50547;49.498;0.092;2023-06-14T02:13:29;1009.47;;;20.51;65.92
64230;BME280;50547;49.498;0.092;2023-06-14T02:15:58;1009.46;;;20.55;65.79
64230;BME280;50547;49.498;0.092;2023-06-14T02:18:28;1009.44;;;20.63;65.46
64230;BME280;50547;49.498;0.092;2023-06-14T02:20:57;1009.46;;;20.84;64.74
64230;BME280;50547;49.498;0.092;2023-06-14T02:23:26;1009.44;;;21.00;64.24
64230;BME280;50547;49.498;0.092;2023-06-14T02:25:55;1009.44;;;21.01;64.41
64230;BME280;50547;49.498;0.092;2023-06-14T02:28:24;1009.42;;;21.04;64.28
64230;BME280;50547;49.498;0.092;2023-06-14T02:30:50;1009.46;;;21.08;64.15
64230;BME280;50547;49.498;0.092;2023-06-14T02:33:19;1009.46;;;21.07;64.16
64230;BME280;50547;49.498;0.092;2023-06-14T02:35:48;1009.49;;;21.10;64.22
64230;BME280;50547;49.498;0.092;2023-06-14T02:38:17;1009.51;;;21.11;64.29
64230;BME280;50547;49.498;0.092;2023-06-14T02:40:47;1009.46;;;21.18;63.94
64230;BME280;50547;49.498;0.092;2023-06-14T02:43:16;1009.49;;;21.18;63.95
64230;BME280;50547;49.498;0.092;2023-06-14T02:45:45;1009.46;;;21.20;64.00
64230;BME280;50547;49.498;0.092;2023-06-14T02:48:13;1009.49;;;21.08;64.38
64230;BME280;50547;49.498;0.092;2023-06-14T02:50:42;1009.49;;;21.05;64.46
64230;BME280;50547;49.498;0.092;2023-06-14T02:53:11;1009.49;;;20.98;64.57
64230;BME280;50547;49.498;0.092;2023-06-14T02:55:41;1009.49;;;20.69;65.54
64230;BME280;50547;49.498;0.092;2023-06-14T02:58:10;1009.42;;;20.55;65.31
64230;BME280;50547;49.498;0.092;2023-06-14T03:00:38;1009.44;;;20.28;66.82
64230;BME280;50547;49.498;0.092;2023-06-14T03:03:08;1009.47;;;19.87;68.41
64230;BME280;50547;49.498;0.092;2023-06-14T03:05:37;1009.46;;;19.77;68.56
64230;BME280;50547;49.498;0.092;2023-06-14T03:08:06;1009.46;;;19.75;68.23
64230;BME280;50547;49.498;0.092;2023-06-14T03:10:34;1009.49;;;19.67;68.41
64230;BME280;50547;49.498;0.092;2023-06-14T03:13:03;1009.47;;;19.68;68.13
64230;BME280;50547;49.498;0.092;2023-06-14T03:15:32;1009.47;;;19.61;68.43
64230;BME280;50547;49.498;0.092;2023-06-14T03:18:01;1009.49;;;19.40;69.53
64230;BME280;50547;49.498;0.092;2023-06-14T03:20:31;1009.47;;;19.33;69.64
64230;BME280;50547;49.498;0.092;2023-06-14T03:23:01;1009.47;;;19.24;69.73
64230;BME280;50547;49.498;0.092;2023-06-14T03:25:30;1009.49;;;19.08;70.50
64230;BME280;50547;49.498;0.092;2023-06-14T03:27:59;1009.51;;;19.09;70.19
64230;BME280;50547;49.498;0.092;2023-06-14T03:30:30;1009.55;;;19.19;69.74
64230;BME280;50547;49.498;0.092;2023-06-14T03:32:59;1009.59;;;19.14;69.70
64230;BME280;50547;49.498;0.092;2023-06-14T03:35:29;1009.57;;;18.99;70.57
64230;BME280;50547;49.498;0.092;2023-06-14T03:37:58;1009.55;;;18.76;71.70
64230;BME280;50547;49.498;0.092;2023-06-14T03:40:27;1009.55;;;18.56;72.66
64230;BME280;50547;49.498;0.092;2023-06-14T03:42:56;1009.59;;;18.54;72.42
64230;BME280;50547;49.498;0.092;2023-06-14T03:45:25;1009.61;;;18.60;72.10
64230;BME280;50547;49.498;0.092;2023-06-14T03:47:54;1009.71;;;18.81;70.95
64230;BME280;50547;49.498;0.092;2023-06-14T03:50:23;1009.71;;;18.87;70.80
64230;BME280;50547;49.498;0.092;2023-06-14T03:52:52;1009.71;;;19.00;70.12
64230;BME280;50547;49.498;0.092;2023-06-14T03:55:21;1009.73;;;18.94;70.50
64230;BME280;50547;49.498;0.092;2023-06-14T03:57:50;1009.75;;;18.99;70.46
64230;BME280;50547;49.498;0.092;2023-06-14T04:00:19;1009.77;;;18.99;70.40
64230;BME280;50547;49.498;0.092;2023-06-14T04:02:48;1009.85;;;19.20;69.68
64230;BME280;50547;49.498;0.092;2023-06-14T04:05:18;1009.85;;;19.09;70.04
64230;BME280;50547;49.498;0.092;2023-06-14T04:07:47;1009.87;;;18.94;71.03
64230;BME280;50547;49.498;0.092;2023-06-14T04:10:16;1009.79;;;18.89;71.18
64230;BME280;50547;49.498;0.092;2023-06-14T04:12:45;1009.85;;;18.83;71.79
64230;BME280;50547;49.498;0.092;2023-06-14T04:15:14;1009.87;;;18.74;72.17
64230;BME280;50547;49.498;0.092;2023-06-14T04:17:43;1009.91;;;18.72;72.19
64230;BME280;50547;49.498;0.092;2023-06-14T04:20:12;1009.93;;;18.73;71.92
64230;BME280;50547;49.498;0.092;2023-06-14T04:22:42;1009.93;;;18.71;71.89
64230;BME280;50547;49.498;0.092;2023-06-14T04:25:11;1009.89;;;18.79;71.48
64230;BME280;50547;49.498;0.092;2023-06-14T04:27:40;1009.93;;;18.95;70.86
64230;BME280;50547;49.498;0.092;2023-06-14T04:30:09;1009.98;;;19.03;70.57
64230;BME280;50547;49.498;0.092;2023-06-14T04:32:38;1010.02;;;18.96;71.12
64230;BME280;50547;49.498;0.092;2023-06-14T04:35:08;1009.98;;;18.77;72.20
64230;BME280;50547;49.498;0.092;2023-06-14T04:37:42;1010.04;;;18.55;73.34
64230;BME280;50547;49.498;0.092;2023-06-14T04:40:11;1010.10;;;18.16;75.25
64230;BME280;50547;49.498;0.092;2023-06-14T04:42:40;1010.12;;;17.94;76.16
64230;BME280;50547;49.498;0.092;2023-06-14T04:45:09;1010.16;;;17.78;76.55
64230;BME280;50547;49.498;0.092;2023-06-14T04:47:39;1010.18;;;17.70;76.78
64230;BME280;50547;49.498;0.092;2023-06-14T04:50:09;1010.14;;;17.61;76.99
64230;BME280;50547;49.498;0.092;2023-06-14T04:52:38;1010.20;;;17.54;77.40
64230;BME280;50547;49.498;0.092;2023-06-14T04:55:08;1010.22;;;17.58;77.02
64230;BME280;50547;49.498;0.092;2023-06-14T04:57:37;1010.24;;;17.64;76.59
64230;BME280;50547;49.498;0.092;2023-06-14T05:00:07;1010.26;;;17.67;76.44
64230;BME280;50547;49.498;0.092;2023-06-14T05:02:36;1010.30;;;17.66;76.60
64230;BME280;50547;49.498;0.092;2023-06-14T05:05:06;1010.34;;;17.83;75.91
64230;BME280;50547;49.498;0.092;2023-06-14T05:07:35;1010.30;;;17.98;75.26
64230;BME280;50547;49.498;0.092;2023-06-14T05:10:05;1010.37;;;18.09;75.09
64230;BME280;50547;49.498;0.092;2023-06-14T05:12:34;1010.36;;;18.23;74.38
64230;BME280;50547;49.498;0.092;2023-06-14T05:15:04;1010.34;;;18.46;73.54
64230;BME280;50547;49.498;0.092;2023-06-14T05:17:33;1010.36;;;18.43;74.07
64230;BME280;50547;49.498;0.092;2023-06-14T05:20:02;1010.32;;;18.67;72.90
64230;BME280;50547;49.498;0.092;2023-06-14T05:22:31;1010.36;;;18.81;72.50
64230;BME280;50547;49.498;0.092;2023-06-14T05:25:00;1010.37;;;19.05;71.66
64230;BME280;50547;49.498;0.092;2023-06-14T05:27:29;1010.37;;;19.26;71.47
64230;BME280;50547;49.498;0.092;2023-06-14T05:29:58;1010.37;;;19.45;70.60
64230;BME280;50547;49.498;0.092;2023-06-14T05:32:27;1010.34;;;19.56;70.38
64230;BME280;50547;49.498;0.092;2023-06-14T05:34:56;1010.36;;;19.83;69.62
64230;BME280;50547;49.498;0.092;2023-06-14T05:37:25;1010.41;;;19.83;69.60
64230;BME280;50547;49.498;0.092;2023-06-14T05:39:54;1010.37;;;19.89;69.79
64230;BME280;50547;49.498;0.092;2023-06-14T05:42:23;1010.41;;;19.95;69.68
64230;BME280;50547;49.498;0.092;2023-06-14T05:44:52;1010.49;;;20.02;69.50
64230;BME280;50547;49.498;0.092;2023-06-14T05:47:22;1010.51;;;20.15;68.84
64230;BME280;50547;49.498;0.092;2023-06-14T05:49:51;1010.49;;;20.51;67.66
64230;BME280;50547;49.498;0.092;2023-06-14T05:52:20;1010.45;;;20.53;67.05
64230;BME280;50547;49.498;0.092;2023-06-14T05:54:49;1010.39;;;20.63;67.49
64230;BME280;50547;49.498;0.092;2023-06-14T05:57:18;1010.41;;;20.85;66.85
64230;BME280;50547;49.498;0.092;2023-06-14T05:59:48;1010.43;;;20.90;66.27
64230;BME280;50547;49.498;0.092;2023-06-14T06:02:22;1010.39;;;21.24;65.90
64230;BME280;50547;49.498;0.092;2023-06-14T06:04:51;1010.45;;;21.52;65.33
64230;BME280;50547;49.498;0.092;2023-06-14T06:07:20;1010.43;;;21.91;63.66
64230;BME280;50547;49.498;0.092;2023-06-14T06:09:49;1010.45;;;21.97;63.64
64230;BME280;50547;49.498;0.092;2023-06-14T06:12:18;1010.47;;;22.36;63.05
64230;BME280;50547;49.498;0.092;2023-06-14T06:14:47;1010.53;;;22.69;62.40
64230;BME280;50547;49.498;0.092;2023-06-14T06:17:16;1010.51;;;23.02;61.64
64230;BME280;50547;49.498;0.092;2023-06-14T06:19:45;1010.55;;;23.10;60.15
64230;BME280;50547;49.498;0.092;2023-06-14T06:22:14;1010.68;;;22.31;63.87
64230;BME280;50547;49.498;0.092;2023-06-14T06:24:43;1010.73;;;22.21;65.49
64230;BME280;50547;49.498;0.092;2023-06-14T06:27:13;1010.75;;;22.21;65.05
64230;BME280;50547;49.498;0.092;2023-06-14T06:29:42;1010.75;;;22.40;64.71
64230;BME280;50547;49.498;0.092;2023-06-14T06:32:11;1010.75;;;22.54;64.17
64230;BME280;50547;49.498;0.092;2023-06-14T06:34:40;1010.71;;;23.00;63.45
64230;BME280;50547;49.498;0.092;2023-06-14T06:37:09;1010.75;;;23.52;62.05
64230;BME280;50547;49.498;0.092;2023-06-14T06:39:38;1010.77;;;23.91;60.99
64230;BME280;50547;49.498;0.092;2023-06-14T06:42:08;1010.77;;;24.26;59.95
64230;BME280;50547;49.498;0.092;2023-06-14T06:44:54;1010.83;;;24.55;59.79
64230;BME280;50547;49.498;0.092;2023-06-14T06:47:23;1010.83;;;24.96;58.17
64230;BME280;50547;49.498;0.092;2023-06-14T06:49:52;1010.81;;;25.18;57.58
64230;BME280;50547;49.498;0.092;2023-06-14T06:52:21;1010.83;;;25.49;57.76
64230;BME280;50547;49.498;0.092;2023-06-14T06:54:50;1010.83;;;25.77;56.98
64230;BME280;50547;49.498;0.092;2023-06-14T06:57:19;1010.87;;;26.04;56.58
64230;BME280;50547;49.498;0.092;2023-06-14T06:59:48;1010.91;;;25.97;56.70
64230;BME280;50547;49.498;0.092;2023-06-14T07:02:18;1010.93;;;26.11;56.37
64230;BME280;50547;49.498;0.092;2023-06-14T07:04:47;1010.87;;;26.24;55.38
64230;BME280;50547;49.498;0.092;2023-06-14T07:07:17;1010.99;;;26.59;54.88
64230;BME280;50547;49.498;0.092;2023-06-14T07:09:46;1011.03;;;26.80;54.04
64230;BME280;50547;49.498;0.092;2023-06-14T07:12:15;1011.05;;;27.05;53.43
64230;BME280;50547;49.498;0.092;2023-06-14T07:14:44;1011.13;;;27.19;52.76
64230;BME280;50547;49.498;0.092;2023-06-14T07:17:13;1011.15;;;27.27;52.08
64230;BME280;50547;49.498;0.092;2023-06-14T07:19:42;1011.15;;;27.24;52.14
64230;BME280;50547;49.498;0.092;2023-06-14T07:22:11;1011.09;;;27.12;53.32
64230;BME280;50547;49.498;0.092;2023-06-14T07:24:40;1011.15;;;27.07;54.03
64230;BME280;50547;49.498;0.092;2023-06-14T07:27:09;1011.18;;;27.24;53.68
64230;BME280;50547;49.498;0.092;2023-06-14T07:29:38;1011.15;;;27.44;52.23
64230;BME280;50547;49.498;0.092;2023-06-14T07:32:07;1011.11;;;27.65;52.48
64230;BME280;50547;49.498;0.092;2023-06-14T07:34:37;1011.15;;;27.25;52.20
64230;BME280;50547;49.498;0.092;2023-06-14T07:37:06;1011.11;;;27.59;51.42
64230;BME280;50547;49.498;0.092;2023-06-14T07:39:35;1011.11;;;27.83;51.57
64230;BME280;50547;49.498;0.092;2023-06-14T07:42:04;1011.18;;;28.12;51.42
64230;BME280;50547;49.498;0.092;2023-06-14T07:44:33;1011.18;;;27.97;51.14
64230;BME280;50547;49.498;0.092;2023-06-14T07:47:02;1011.18;;;28.27;52.00
64230;BME280;50547;49.498;0.092;2023-06-14T07:49:31;1011.26;;;28.47;50.66
64230;BME280;50547;49.498;0.092;2023-06-14T07:52:01;1011.30;;;27.20;53.75
64230;BME280;50547;49.498;0.092;2023-06-14T07:54:30;1011.26;;;27.18;54.75
64230;BME280;50547;49.498;0.092;2023-06-14T07:56:59;1011.28;;;25.99;59.49
64230;BME280;50547;49.498;0.092;2023-06-14T07:59:28;1011.28;;;25.78;58.38
64230;BME280;50547;49.498;0.092;2023-06-14T08:01:57;1011.34;;;25.90;58.85
64230;BME280;50547;49.498;0.092;2023-06-14T08:04:26;1011.34;;;25.47;59.04
64230;BME280;50547;49.498;0.092;2023-06-14T08:06:55;1011.34;;;25.11;59.92
64230;BME280;50547;49.498;0.092;2023-06-14T08:09:24;1011.38;;;25.61;58.85
64230;BME280;50547;49.498;0.092;2023-06-14T08:11:53;1011.38;;;25.61;59.66
64230;BME280;50547;49.498;0.092;2023-06-14T08:14:22;1011.46;;;25.49;58.75
64230;BME280;50547;49.498;0.092;2023-06-14T08:16:51;1011.48;;;25.39;59.31
64230;BME280;50547;49.498;0.092;2023-06-14T08:19:20;1011.50;;;25.52;59.28
64230;BME280;50547;49.498;0.092;2023-06-14T08:21:50;1011.54;;;25.38;58.87
64230;BME280;50547;49.498;0.092;2023-06-14T08:24:21;1011.56;;;25.37;59.17
64230;BME280;50547;49.498;0.092;2023-06-14T08:26:50;1011.52;;;25.70;58.79
64230;BME280;50547;49.498;0.092;2023-06-14T08:29:19;1011.56;;;25.90;58.28
64230;BME280;50547;49.498;0.092;2023-06-14T08:31:48;1011.54;;;25.67;58.76
64230;BME280;50547;49.498;0.092;2023-06-14T08:34:17;1011.54;;;25.51;57.52
64230;BME280;50547;49.498;0.092;2023-06-14T08:36:46;1011.58;;;25.42;59.56
64230;BME280;50547;49.498;0.092;2023-06-14T08:39:15;1011.60;;;26.17;56.68
64230;BME280;50547;49.498;0.092;2023-06-14T08:41:46;1011.56;;;25.62;58.34
64230;BME280;50547;49.498;0.092;2023-06-14T08:44:16;1011.54;;;25.57;58.21
64230;BME280;50547;49.498;0.092;2023-06-14T08:46:45;1011.56;;;25.90;56.07
64230;BME280;50547;49.498;0.092;2023-06-14T08:49:17;1011.56;;;26.05;56.55
64230;BME280;50547;49.498;0.092;2023-06-14T08:51:46;1011.56;;;25.75;56.88
64230;BME280;50547;49.498;0.092;2023-06-14T08:54:17;1011.60;;;26.07;56.65
64230;BME280;50547;49.498;0.092;2023-06-14T08:56:47;1011.67;;;26.27;56.78
64230;BME280;50547;49.498;0.092;2023-06-14T08:59:16;1011.65;;;26.41;55.45
64230;BME280;50547;49.498;0.092;2023-06-14T09:01:45;1011.62;;;26.25;56.25
64230;BME280;50547;49.498;0.092;2023-06-14T09:04:14;1011.64;;;26.00;57.15
64230;BME280;50547;49.498;0.092;2023-06-14T09:06:43;1011.64;;;25.85;57.61
64230;BME280;50547;49.498;0.092;2023-06-14T09:09:13;1011.75;;;25.28;60.79
64230;BME280;50547;49.498;0.092;2023-06-14T09:11:42;1011.69;;;25.85;58.48
64230;BME280;50547;49.498;0.092;2023-06-14T09:14:11;1011.71;;;26.56;55.14
64230;BME280;50547;49.498;0.092;2023-06-14T09:16:41;1011.71;;;26.72;54.47
64230;BME280;50547;49.498;0.092;2023-06-14T09:19:14;1011.71;;;27.14;53.08
64230;BME280;50547;49.498;0.092;2023-06-14T09:21:50;1011.77;;;27.28;52.69
64230;BME280;50547;49.498;0.092;2023-06-14T09:24:19;1011.77;;;26.50;55.88
64230;BME280;50547;49.498;0.092;2023-06-14T09:26:50;1011.77;;;26.06;57.09
64230;BME280;50547;49.498;0.092;2023-06-14T09:29:20;1011.71;;;25.64;59.66
64230;BME280;50547;49.498;0.092;2023-06-14T09:31:49;1011.71;;;25.80;57.27
64230;BME280;50547;49.498;0.092;2023-06-14T09:34:18;1011.73;;;25.38;59.28
64230;BME280;50547;49.498;0.092;2023-06-14T09:36:48;1011.75;;;25.30;58.03
64230;BME280;50547;49.498;0.092;2023-06-14T09:39:18;1011.77;;;25.12;59.65
64230;BME280;50547;49.498;0.092;2023-06-14T09:41:47;1011.75;;;25.25;59.13
64230;BME280;50547;49.498;0.092;2023-06-14T09:44:16;1011.71;;;25.90;56.86
64230;BME280;50547;49.498;0.092;2023-06-14T09:46:44;1011.73;;;26.49;55.43
64230;BME280;50547;49.498;0.092;2023-06-14T09:49:13;1011.75;;;27.15;53.18
64230;BME280;50547;49.498;0.092;2023-06-14T09:51:44;1011.75;;;27.52;52.46
64230;BME280;50547;49.498;0.092;2023-06-14T09:54:16;1011.79;;;27.06;54.64
64230;BME280;50547;49.498;0.092;2023-06-14T09:56:51;1011.81;;;27.41;53.63
64230;BME280;50547;49.498;0.092;2023-06-14T09:59:23;1011.87;;;27.42;53.03
64230;BME280;50547;49.498;0.092;2023-06-14T10:01:56;1011.81;;;26.92;55.40
64230;BME280;50547;49.498;0.092;2023-06-14T10:04:27;1011.87;;;27.57;57.00
64230;BME280;50547;49.498;0.092;2023-06-14T10:06:58;1011.97;;;26.72;60.97
64230;BME280;50547;49.498;0.092;2023-06-14T10:09:28;1011.95;;;26.87;60.65
64230;BME280;50547;49.498;0.092;2023-06-14T10:11:55;1011.91;;;26.26;62.35
64230;BME280;50547;49.498;0.092;2023-06-14T10:14:26;1011.93;;;25.99;63.73
64230;BME280;50547;49.498;0.092;2023-06-14T10:17:00;1011.93;;;25.48;65.46
64230;BME280;50547;49.498;0.092;2023-06-14T10:19:40;1011.87;;;25.24;65.83
64230;BME280;50547;49.498;0.092;2023-06-14T10:22:16;1011.87;;;25.29;65.51
64230;BME280;50547;49.498;0.092;2023-06-14T10:24:47;1011.85;;;25.17;65.15
64230;BME280;50547;49.498;0.092;2023-06-14T10:27:21;1011.87;;;25.15;64.70
64230;BME280;50547;49.498;0.092;2023-06-14T10:30:08;1011.89;;;25.32;64.91
64230;BME280;50547;49.498;0.092;2023-06-14T10:33:03;1011.93;;;25.13;64.84
64230;BME280;50547;49.498;0.092;2023-06-14T10:35:32;1011.95;;;25.07;65.57
64230;BME280;50547;49.498;0.092;2023-06-14T10:38:10;1011.95;;;24.82;65.74
64230;BME280;50547;49.498;0.092;2023-06-14T10:40:41;1011.93;;;24.82;65.73
64230;BME280;50547;49.498;0.092;2023-06-14T10:43:21;1011.93;;;24.72;66.77
64230;BME280;50547;49.498;0.092;2023-06-14T10:46:28;1011.93;;;24.68;66.44
64230;BME280;50547;49.498;0.092;2023-06-14T10:48:58;1011.97;;;25.50;64.72
64230;BME280;50547;49.498;0.092;2023-06-14T10:51:29;1011.87;;;25.57;64.38
64230;BME280;50547;49.498;0.092;2023-06-14T10:53:59;1011.87;;;25.61;63.45
64230;BME280;50547;49.498;0.092;2023-06-14T10:56:29;1011.85;;;25.10;65.37
64230;BME280;50547;49.498;0.092;2023-06-14T10:58:58;1011.79;;;24.27;69.97
64230;BME280;50547;49.498;0.092;2023-06-14T11:01:52;1011.83;;;23.83;71.53
64230;BME280;50547;49.498;0.092;2023-06-14T11:04:34;1011.89;;;23.39;72.35
64230;BME280;50547;49.498;0.092;2023-06-14T11:07:31;1011.85;;;23.57;70.83
64230;BME280;50547;49.498;0.092;2023-06-14T11:10:17;1011.81;;;23.84;69.15
64230;BME280;50547;49.498;0.092;2023-06-14T11:12:53;1011.83;;;24.27;66.88
64230;BME280;50547;49.498;0.092;2023-06-14T11:16:15;1011.81;;;25.28;63.64
64230;BME280;50547;49.498;0.092;2023-06-14T11:18:44;1011.79;;;26.03;61.83
64230;BME280;50547;49.498;0.092;2023-06-14T11:21:15;1011.83;;;26.55;60.78
64230;BME280;50547;49.498;0.092;2023-06-14T11:23:54;1011.81;;;27.12;59.29
64230;BME280;50547;49.498;0.092;2023-06-14T11:26:25;1011.75;;;26.90;60.72
64230;BME280;50547;49.498;0.092;2023-06-14T11:28:56;1011.81;;;26.60;62.46
64230;BME280;50547;49.498;0.092;2023-06-14T11:31:30;1011.75;;;26.84;61.67
64230;BME280;50547;49.498;0.092;2023-06-14T11:34:00;1011.73;;;26.71;61.90
64230;BME280;50547;49.498;0.092;2023-06-14T11:36:30;1011.71;;;26.77;62.53
64230;BME280;50547;49.498;0.092;2023-06-14T11:39:00;1011.69;;;26.87;60.80
64230;BME280;50547;49.498;0.092;2023-06-14T11:41:36;1011.67;;;25.47;66.88
64230;BME280;50547;49.498;0.092;2023-06-14T11:44:35;1011.60;;;25.07;66.68
64230;BME280;50547;49.498;0.092;2023-06-14T11:47:04;1011.60;;;25.10;59.96
64230;BME280;50547;49.498;0.092;2023-06-14T11:49:35;1011.58;;;25.73;56.39
64230;BME280;50547;49.498;0.092;2023-06-14T11:52:05;1011.54;;;26.06;49.42
64230;BME280;50547;49.498;0.092;2023-06-14T11:54:35;1011.52;;;27.28;40.48
64230;BME280;50547;49.498;0.092;2023-06-14T11:57:05;1011.46;;;27.92;39.70
64230;BME280;50547;49.498;0.092;2023-06-14T11:59:38;1011.46;;;28.30;38.85
64230;BME280;50547;49.498;0.092;2023-06-14T12:02:07;1011.44;;;28.22;39.23
64230;BME280;50547;49.498;0.092;2023-06-14T12:04:37;1011.44;;;27.88;37.27
64230;BME280;50547;49.498;0.092;2023-06-14T12:07:09;1011.42;;;27.88;38.04
64230;BME280;50547;49.498;0.092;2023-06-14T12:09:39;1011.40;;;28.11;45.20
64230;BME280;50547;49.498;0.092;2023-06-14T12:12:08;1011.38;;;27.88;41.40
64230;BME280;50547;49.498;0.092;2023-06-14T12:14:37;1011.36;;;27.96;44.88
64230;BME280;50547;49.498;0.092;2023-06-14T12:17:07;1011.34;;;28.09;43.75
64230;BME280;50547;49.498;0.092;2023-06-14T12:19:42;1011.44;;;26.64;59.70
64230;BME280;50547;49.498;0.092;2023-06-14T12:22:22;1011.46;;;25.31;65.18
64230;BME280;50547;49.498;0.092;2023-06-14T12:24:48;1011.40;;;25.27;63.21
64230;BME280;50547;49.498;0.092;2023-06-14T12:27:17;1011.40;;;25.66;61.96
64230;BME280;50547;49.498;0.092;2023-06-14T12:29:59;1011.40;;;25.55;62.96
64230;BME280;50547;49.498;0.092;2023-06-14T12:32:33;1011.42;;;25.55;61.65
64230;BME280;50547;49.498;0.092;2023-06-14T12:35:02;1011.46;;;25.88;57.03
64230;BME280;50547;49.498;0.092;2023-06-14T12:37:32;1011.44;;;27.26;45.97
64230;BME280;50547;49.498;0.092;2023-06-14T12:40:01;1011.44;;;27.78;41.93
64230;BME280;50547;49.498;0.092;2023-06-14T12:42:31;1011.38;;;28.04;53.12
64230;BME280;50547;49.498;0.092;2023-06-14T12:44:57;1011.44;;;27.07;58.88
64230;BME280;50547;49.498;0.092;2023-06-14T12:47:26;1011.44;;;27.51;55.84
64230;BME280;50547;49.498;0.092;2023-06-14T12:49:56;1011.40;;;27.11;58.81
64230;BME280;50547;49.498;0.092;2023-06-14T12:52:25;1011.42;;;26.15;61.23
64230;BME280;50547;49.498;0.092;2023-06-14T12:54:54;1011.48;;;25.91;62.01
64230;BME280;50547;49.498;0.092;2023-06-14T12:57:23;1011.40;;;25.55;61.55
64230;BME280;50547;49.498;0.092;2023-06-14T12:59:51;1011.46;;;25.12;63.91
64230;BME280;50547;49.498;0.092;2023-06-14T13:02:20;1011.44;;;24.99;63.50
64230;BME280;50547;49.498;0.092;2023-06-14T13:04:49;1011.44;;;24.52;65.85
64230;BME280;50547;49.498;0.092;2023-06-14T13:07:21;1011.52;;;24.18;65.06
64230;BME280;50547;49.498;0.092;2023-06-14T13:09:50;1011.50;;;24.42;64.03
64230;BME280;50547;49.498;0.092;2023-06-14T13:12:19;1011.44;;;25.42;58.99
64230;BME280;50547;49.498;0.092;2023-06-14T13:14:49;1011.44;;;25.50;58.46
64230;BME280;50547;49.498;0.092;2023-06-14T13:17:18;1011.52;;;24.52;63.45
64230;BME280;50547;49.498;0.092;2023-06-14T13:19:47;1011.54;;;24.66;62.37
64230;BME280;50547;49.498;0.092;2023-06-14T13:22:16;1011.54;;;25.45;58.80
64230;BME280;50547;49.498;0.092;2023-06-14T13:24:45;1011.48;;;25.57;60.19
64230;BME280;50547;49.498;0.092;2023-06-14T13:27:15;1011.46;;;25.71;58.63